sensor_id;sensor_type;location;lat;lon;timestamp;temperature;humidity
12874;DHT22;6505;51.114;13.128;2023-03-01T00:01:31;7.50;45.70
12874;DHT22;6505;51.114;13.128;2023-03-01T00:03:59;7.50;45.60
12874;DHT22;6505;51.114;13.128;2023-03-01T00:06:27;7.50;45.50
12874;DHT22;6505;51.114;13.128;2023-03-01T00:08:57;7.50;45.60
12874;DHT22;6505;51.114;13.128;2023-03-01T00:11:26;7.50;45.60
12874;DHT22;6505;51.114;13.128;2023-03-01T00:13:58;7.50;45.60
12874;DHT22;6505;51.114;13.128;2023-03-01T00:16:29;7.50;45.60
12874;DHT22;6505;51.114;13.128;2023-03-01T00:19:00;7.50;45.60
12874;DHT22;6505;51.114;13.128;2023-03-01T00:21:28;7.40;45.40
12874;DHT22;6505;51.114;13.128;2023-03-01T00:23:58;7.50;45.70
12874;DHT22;6505;51.114;13.128;2023-03-01T00:26:26;7.40;45.20
12874;DHT22;6505;51.114;13.128;2023-03-01T00:28:57;7.40;45.30
12874;DHT22;6505;51.114;13.128;2023-03-01T00:31:27;7.40;45.40
12874;DHT22;6505;51.114;13.128;2023-03-01T00:33:58;7.40;45.40
12874;DHT22;6505;51.114;13.128;2023-03-01T00:36:30;7.40;45.40
12874;DHT22;6505;51.114;13.128;2023-03-01T00:39:03;7.40;45.10
12874;DHT22;6505;51.114;13.128;2023-03-01T00:41:32;7.40;45.30
12874;DHT22;6505;51.114;13.128;2023-03-01T00:44:01;7.30;45.10
12874;DHT22;6505;51.114;13.128;2023-03-01T00:46:29;7.30;45.20
12874;DHT22;6505;51.114;13.128;2023-03-01T00:48:58;7.30;45.10
12874;DHT22;6505;51.114;13.128;2023-03-01T00:51:29;7.30;45.10
12874;DHT22;6505;51.114;13.128;2023-03-01T00:53:59;7.30;45.20
12874;DHT22;6505;51.114;13.128;2023-03-01T00:56:29;7.30;45.30
12874;DHT22;6505;51.114;13.128;2023-03-01T00:58:59;7.30;45.10
12874;DHT22;6505;51.114;13.128;2023-03-01T01:01:29;7.20;45.00
12874;DHT22;6505;51.114;13.128;2023-03-01T01:03:59;7.20;45.00
12874;DHT22;6505;51.114;13.128;2023-03-01T01:06:30;7.30;45.00
12874;DHT22;6505;51.114;13.128;2023-03-01T01:09:00;7.20;44.90
12874;DHT22;6505;51.114;13.128;2023-03-01T01:11:31;7.20;45.00
12874;DHT22;6505;51.114;13.128;2023-03-01T01:13:59;7.20;44.60
12874;DHT22;6505;51.114;13.128;2023-03-01T01:16:29;7.20;44.90
12874;DHT22;6505;51.114;13.128;2023-03-01T01:18:58;7.20;45.00
12874;DHT22;6505;51.114;13.128;2023-03-01T01:21:27;7.20;44.90
12874;DHT22;6505;51.114;13.128;2023-03-01T01:23:56;7.10;44.80
12874;DHT22;6505;51.114;13.128;2023-03-01T01:26:27;7.10;44.80
12874;DHT22;6505;51.114;13.128;2023-03-01T01:28:58;7.20;45.00
12874;DHT22;6505;51.114;13.128;2023-03-01T01:31:28;7.10;45.00
12874;DHT22;6505;51.114;13.128;2023-03-01T01:33:59;7.10;44.90
12874;DHT22;6505;51.114;13.128;2023-03-01T01:36:29;7.10;44.90
12874;DHT22;6505;51.114;13.128;2023-03-01T01:38:59;7.10;45.00
12874;DHT22;6505;51.114;13.128;2023-03-01T01:41:29;7.10;45.00
12874;DHT22;6505;51.114;13.128;2023-03-01T01:44:15;7.10;44.80
12874;DHT22;6505;51.114;13.128;2023-03-01T01:46:49;7.10;44.80
12874;DHT22;6505;51.114;13.128;2023-03-01T01:49:27;7.00;44.90
12874;DHT22;6505;51.114;13.128;2023-03-01T01:52:04;7.10;44.90
12874;DHT22;6505;51.114;13.128;2023-03-01T01:54:41;7.00;44.70
12874;DHT22;6505;51.114;13.128;2023-03-01T01:57:14;7.00;44.50
12874;DHT22;6505;51.114;13.128;2023-03-01T01:59:49;7.00;44.40
12874;DHT22;6505;51.114;13.128;2023-03-01T02:02:20;7.00;44.30
12874;DHT22;6505;51.114;13.128;2023-03-01T02:04:49;6.90;44.40
12874;DHT22;6505;51.114;13.128;2023-03-01T02:07:26;6.90;44.30
12874;DHT22;6505;51.114;13.128;2023-03-01T02:09:54;6.90;44.30
12874;DHT22;6505;51.114;13.128;2023-03-01T02:12:24;6.90;44.30
12874;DHT22;6505;51.114;13.128;2023-03-01T02:14:55;6.90;44.30
12874;DHT22;6505;51.114;13.128;2023-03-01T02:17:24;6.90;44.20
12874;DHT22;6505;51.114;13.128;2023-03-01T02:20:00;6.90;44.30
12874;DHT22;6505;51.114;13.128;2023-03-01T02:22:37;6.90;44.30
12874;DHT22;6505;51.114;13.128;2023-03-01T02:25:20;6.90;44.40
12874;DHT22;6505;51.114;13.128;2023-03-01T02:27:54;6.90;44.40
12874;DHT22;6505;51.114;13.128;2023-03-01T02:30:27;6.90;44.30
12874;DHT22;6505;51.114;13.128;2023-03-01T02:32:58;6.90;44.30
12874;DHT22;6505;51.114;13.128;2023-03-01T02:35:32;6.80;44.30
12874;DHT22;6505;51.114;13.128;2023-03-01T02:38:03;6.80;44.00
12874;DHT22;6505;51.114;13.128;2023-03-01T02:40:36;6.90;44.30
12874;DHT22;6505;51.114;13.128;2023-03-01T02:43:08;6.80;44.20
12874;DHT22;6505;51.114;13.128;2023-03-01T02:45:48;6.80;44.20
12874;DHT22;6505;51.114;13.128;2023-03-01T02:48:17;6.80;44.30
12874;DHT22;6505;51.114;13.128;2023-03-01T02:50:57;6.80;44.10
12874;DHT22;6505;51.114;13.128;2023-03-01T02:53:39;6.70;44.10
12874;DHT22;6505;51.114;13.128;2023-03-01T02:56:13;6.70;44.20
12874;DHT22;6505;51.114;13.128;2023-03-01T02:58:42;6.70;44.10
12874;DHT22;6505;51.114;13.128;2023-03-01T03:01:16;6.70;44.10
12874;DHT22;6505;51.114;13.128;2023-03-01T03:03:45;6.70;44.10
12874;DHT22;6505;51.114;13.128;2023-03-01T03:06:13;6.70;43.70
12874;DHT22;6505;51.114;13.128;2023-03-01T03:08:41;6.70;43.90
12874;DHT22;6505;51.114;13.128;2023-03-01T03:11:10;6.70;44.00
12874;DHT22;6505;51.114;13.128;2023-03-01T03:13:38;6.70;44.00
12874;DHT22;6505;51.114;13.128;2023-03-01T03:16:14;6.60;44.00
12874;DHT22;6505;51.114;13.128;2023-03-01T03:18:44;6.60;44.10
12874;DHT22;6505;51.114;13.128;2023-03-01T03:21:12;6.60;44.00
12874;DHT22;6505;51.114;13.128;2023-03-01T03:23:41;6.60;44.10
12874;DHT22;6505;51.114;13.128;2023-03-01T03:26:09;6.60;44.00
12874;DHT22;6505;51.114;13.128;2023-03-01T03:28:41;6.50;43.90
12874;DHT22;6505;51.114;13.128;2023-03-01T03:31:09;6.60;43.90
12874;DHT22;6505;51.114;13.128;2023-03-01T03:33:39;6.60;44.00
12874;DHT22;6505;51.114;13.128;2023-03-01T03:36:07;6.60;44.00
12874;DHT22;6505;51.114;13.128;2023-03-01T03:38:39;6.60;44.00
12874;DHT22;6505;51.114;13.128;2023-03-01T03:41:08;6.50;43.90
12874;DHT22;6505;51.114;13.128;2023-03-01T03:43:37;6.50;43.90
12874;DHT22;6505;51.114;13.128;2023-03-01T03:46:07;6.50;44.00
12874;DHT22;6505;51.114;13.128;2023-03-01T03:48:36;6.50;44.00
12874;DHT22;6505;51.114;13.128;2023-03-01T03:51:09;6.50;44.00
12874;DHT22;6505;51.114;13.128;2023-03-01T03:53:38;6.50;43.90
12874;DHT22;6505;51.114;13.128;2023-03-01T03:56:06;6.50;43.90
12874;DHT22;6505;51.114;13.128;2023-03-01T03:58:35;6.50;44.00
12874;DHT22;6505;51.114;13.128;2023-03-01T04:01:04;6.50;43.90
12874;DHT22;6505;51.114;13.128;2023-03-01T04:03:32;6.50;43.90
12874;DHT22;6505;51.114;13.128;2023-03-01T04:06:03;6.50;43.80
12874;DHT22;6505;51.114;13.128;2023-03-01T04:08:32;6.50;43.80
12874;DHT22;6505;51.114;13.128;2023-03-01T04:11:03;6.50;43.80
12874;DHT22;6505;51.114;13.128;2023-03-01T04:13:46;6.40;43.60
12874;DHT22;6505;51.114;13.128;2023-03-01T04:16:14;6.40;43.10
12874;DHT22;6505;51.114;13.128;2023-03-01T04:18:42;6.40;43.70
12874;DHT22;6505;51.114;13.128;2023-03-01T04:21:11;6.40;43.70
12874;DHT22;6505;51.114;13.128;2023-03-01T04:23:39;6.40;43.60
12874;DHT22;6505;51.114;13.128;2023-03-01T04:26:08;6.40;43.70
12874;DHT22;6505;51.114;13.128;2023-03-01T04:28:38;6.30;43.50
12874;DHT22;6505;51.114;13.128;2023-03-01T04:31:11;6.40;43.70
12874;DHT22;6505;51.114;13.128;2023-03-01T04:33:44;6.30;43.60
12874;DHT22;6505;51.114;13.128;2023-03-01T04:36:16;6.30;43.60
12874;DHT22;6505;51.114;13.128;2023-03-01T04:38:46;6.30;43.60
12874;DHT22;6505;51.114;13.128;2023-03-01T04:41:16;6.30;42.90
12874;DHT22;6505;51.114;13.128;2023-03-01T04:43:46;6.30;44.30
12874;DHT22;6505;51.114;13.128;2023-03-01T04:46:16;6.30;43.10
12874;DHT22;6505;51.114;13.128;2023-03-01T04:48:46;6.20;43.50
12874;DHT22;6505;51.114;13.128;2023-03-01T04:51:16;6.30;42.80
12874;DHT22;6505;51.114;13.128;2023-03-01T04:53:45;6.30;43.30
12874;DHT22;6505;51.114;13.128;2023-03-01T04:56:13;6.30;43.30
12874;DHT22;6505;51.114;13.128;2023-03-01T04:58:41;6.20;43.20
12874;DHT22;6505;51.114;13.128;2023-03-01T05:01:10;6.20;43.20
12874;DHT22;6505;51.114;13.128;2023-03-01T05:03:43;6.20;43.40
12874;DHT22;6505;51.114;13.128;2023-03-01T05:06:16;6.20;43.40
12874;DHT22;6505;51.114;13.128;2023-03-01T05:08:45;6.20;43.30
12874;DHT22;6505;51.114;13.128;2023-03-01T05:11:13;6.20;43.20
12874;DHT22;6505;51.114;13.128;2023-03-01T05:13:41;6.20;43.10
12874;DHT22;6505;51.114;13.128;2023-03-01T05:16:10;6.20;43.10
12874;DHT22;6505;51.114;13.128;2023-03-01T05:18:39;6.10;43.10
12874;DHT22;6505;51.114;13.128;2023-03-01T05:21:10;6.20;43.20
12874;DHT22;6505;51.114;13.128;2023-03-01T05:23:41;6.10;43.10
12874;DHT22;6505;51.114;13.128;2023-03-01T05:26:09;6.20;43.20
12874;DHT22;6505;51.114;13.128;2023-03-01T05:28:53;6.10;43.10
12874;DHT22;6505;51.114;13.128;2023-03-01T05:31:25;6.10;43.00
12874;DHT22;6505;51.114;13.128;2023-03-01T05:33:54;6.10;43.10
12874;DHT22;6505;51.114;13.128;2023-03-01T05:36:22;6.10;43.10
12874;DHT22;6505;51.114;13.128;2023-03-01T05:38:51;6.10;43.00
12874;DHT22;6505;51.114;13.128;2023-03-01T05:41:19;6.00;42.90
12874;DHT22;6505;51.114;13.128;2023-03-01T05:43:47;6.10;43.00
12874;DHT22;6505;51.114;13.128;2023-03-01T05:46:15;6.00;42.80
12874;DHT22;6505;51.114;13.128;2023-03-01T05:48:43;6.00;42.90
12874;DHT22;6505;51.114;13.128;2023-03-01T05:51:11;6.00;42.80
12874;DHT22;6505;51.114;13.128;2023-03-01T05:53:39;6.00;42.80
12874;DHT22;6505;51.114;13.128;2023-03-01T05:56:08;6.00;42.80
12874;DHT22;6505;51.114;13.128;2023-03-01T05:58:37;6.00;42.80
12874;DHT22;6505;51.114;13.128;2023-03-01T06:01:05;6.00;42.80
12874;DHT22;6505;51.114;13.128;2023-03-01T06:03:38;6.00;42.90
12874;DHT22;6505;51.114;13.128;2023-03-01T06:06:06;6.00;42.80
12874;DHT22;6505;51.114;13.128;2023-03-01T06:08:34;6.00;42.90
12874;DHT22;6505;51.114;13.128;2023-03-01T06:11:02;6.00;42.90
12874;DHT22;6505;51.114;13.128;2023-03-01T06:13:31;6.00;42.90
12874;DHT22;6505;51.114;13.128;2023-03-01T06:15:59;6.00;42.90
12874;DHT22;6505;51.114;13.128;2023-03-01T06:18:27;5.90;42.70
12874;DHT22;6505;51.114;13.128;2023-03-01T06:20:56;5.90;42.90
12874;DHT22;6505;51.114;13.128;2023-03-01T06:23:24;5.90;42.90
12874;DHT22;6505;51.114;13.128;2023-03-01T06:25:52;5.90;43.00
12874;DHT22;6505;51.114;13.128;2023-03-01T06:28:21;5.90;42.90
12874;DHT22;6505;51.114;13.128;2023-03-01T06:30:51;5.90;43.10
12874;DHT22;6505;51.114;13.128;2023-03-01T06:33:19;5.90;43.20
12874;DHT22;6505;51.114;13.128;2023-03-01T06:35:49;5.90;43.10
12874;DHT22;6505;51.114;13.128;2023-03-01T06:38:17;5.90;43.10
12874;DHT22;6505;51.114;13.128;2023-03-01T06:40:51;5.90;43.30
12874;DHT22;6505;51.114;13.128;2023-03-01T06:43:20;5.90;43.50
12874;DHT22;6505;51.114;13.128;2023-03-01T06:45:48;5.90;43.40
12874;DHT22;6505;51.114;13.128;2023-03-01T06:48:17;5.90;43.30
12874;DHT22;6505;51.114;13.128;2023-03-01T06:50:45;5.90;43.40
12874;DHT22;6505;51.114;13.128;2023-03-01T06:53:13;5.90;43.40
12874;DHT22;6505;51.114;13.128;2023-03-01T06:55:41;5.90;43.40
12874;DHT22;6505;51.114;13.128;2023-03-01T06:58:09;5.90;43.40
12874;DHT22;6505;51.114;13.128;2023-03-01T07:00:38;5.90;43.40
12874;DHT22;6505;51.114;13.128;2023-03-01T07:03:08;6.00;43.60
12874;DHT22;6505;51.114;13.128;2023-03-01T07:05:37;6.00;43.60
12874;DHT22;6505;51.114;13.128;2023-03-01T07:08:05;6.00;43.70
12874;DHT22;6505;51.114;13.128;2023-03-01T07:10:33;6.00;43.70
12874;DHT22;6505;51.114;13.128;2023-03-01T07:13:01;6.00;43.80
12874;DHT22;6505;51.114;13.128;2023-03-01T07:15:29;6.00;44.00
12874;DHT22;6505;51.114;13.128;2023-03-01T07:17:57;6.00;44.10
12874;DHT22;6505;51.114;13.128;2023-03-01T07:20:25;6.00;44.30
12874;DHT22;6505;51.114;13.128;2023-03-01T07:22:55;6.10;44.40
12874;DHT22;6505;51.114;13.128;2023-03-01T07:25:25;6.10;44.60
12874;DHT22;6505;51.114;13.128;2023-03-01T07:27:53;6.10;44.70
12874;DHT22;6505;51.114;13.128;2023-03-01T07:30:22;6.20;44.80
12874;DHT22;6505;51.114;13.128;2023-03-01T07:32:52;6.10;44.90
12874;DHT22;6505;51.114;13.128;2023-03-01T07:35:21;6.20;44.90
12874;DHT22;6505;51.114;13.128;2023-03-01T07:37:50;6.20;44.90
12874;DHT22;6505;51.114;13.128;2023-03-01T07:40:20;6.20;45.00
12874;DHT22;6505;51.114;13.128;2023-03-01T07:42:48;6.20;45.10
12874;DHT22;6505;51.114;13.128;2023-03-01T07:45:16;6.30;45.20
12874;DHT22;6505;51.114;13.128;2023-03-01T07:47:44;6.30;45.20
12874;DHT22;6505;51.114;13.128;2023-03-01T07:50:12;6.30;45.20
12874;DHT22;6505;51.114;13.128;2023-03-01T07:52:41;6.30;45.40
12874;DHT22;6505;51.114;13.128;2023-03-01T07:55:12;6.30;45.40
12874;DHT22;6505;51.114;13.128;2023-03-01T07:57:41;6.40;45.70
12874;DHT22;6505;51.114;13.128;2023-03-01T08:00:11;6.40;45.80
12874;DHT22;6505;51.114;13.128;2023-03-01T08:02:40;6.40;46.00
12874;DHT22;6505;51.114;13.128;2023-03-01T08:05:09;6.40;45.90
12874;DHT22;6505;51.114;13.128;2023-03-01T08:07:37;6.50;46.30
12874;DHT22;6505;51.114;13.128;2023-03-01T08:10:06;6.50;46.20
12874;DHT22;6505;51.114;13.128;2023-03-01T08:12:34;6.50;46.40
12874;DHT22;6505;51.114;13.128;2023-03-01T08:15:04;6.50;46.30
12874;DHT22;6505;51.114;13.128;2023-03-01T08:17:33;6.60;46.80
12874;DHT22;6505;51.114;13.128;2023-03-01T08:20:01;6.60;46.70
12874;DHT22;6505;51.114;13.128;2023-03-01T08:22:30;6.60;46.80
12874;DHT22;6505;51.114;13.128;2023-03-01T08:24:58;6.60;46.80
12874;DHT22;6505;51.114;13.128;2023-03-01T08:27:26;6.60;46.90
12874;DHT22;6505;51.114;13.128;2023-03-01T08:29:54;6.70;47.10
12874;DHT22;6505;51.114;13.128;2023-03-01T08:32:23;6.80;47.40
12874;DHT22;6505;51.114;13.128;2023-03-01T08:34:51;6.80;47.60
12874;DHT22;6505;51.114;13.128;2023-03-01T08:37:19;6.90;48.00
12874;DHT22;6505;51.114;13.128;2023-03-01T08:39:47;7.00;48.10
12874;DHT22;6505;51.114;13.128;2023-03-01T08:42:15;7.10;48.10
12874;DHT22;6505;51.114;13.128;2023-03-01T08:44:43;7.20;48.10
12874;DHT22;6505;51.114;13.128;2023-03-01T08:47:12;7.20;47.90
12874;DHT22;6505;51.114;13.128;2023-03-01T08:49:42;7.20;47.90
12874;DHT22;6505;51.114;13.128;2023-03-01T08:52:10;7.30;47.50
12874;DHT22;6505;51.114;13.128;2023-03-01T08:54:38;7.40;47.50
12874;DHT22;6505;51.114;13.128;2023-03-01T08:57:06;7.30;47.40
12874;DHT22;6505;51.114;13.128;2023-03-01T08:59:35;7.40;47.50
12874;DHT22;6505;51.114;13.128;2023-03-01T09:02:04;7.40;47.50
12874;DHT22;6505;51.114;13.128;2023-03-01T09:04:32;7.40;47.70
12874;DHT22;6505;51.114;13.128;2023-03-01T09:07:02;7.40;47.40
12874;DHT22;6505;51.114;13.128;2023-03-01T09:09:30;7.40;47.60
12874;DHT22;6505;51.114;13.128;2023-03-01T09:11:58;7.40;47.70
12874;DHT22;6505;51.114;13.128;2023-03-01T09:14:26;7.40;47.90
12874;DHT22;6505;51.114;13.128;2023-03-01T09:16:54;7.40;47.80
12874;DHT22;6505;51.114;13.128;2023-03-01T09:19:22;7.40;47.90
12874;DHT22;6505;51.114;13.128;2023-03-01T09:21:52;7.40;48.00
12874;DHT22;6505;51.114;13.128;2023-03-01T09:24:24;7.40;47.90
12874;DHT22;6505;51.114;13.128;2023-03-01T09:26:54;7.50;48.10
12874;DHT22;6505;51.114;13.128;2023-03-01T09:29:23;7.40;48.10
12874;DHT22;6505;51.114;13.128;2023-03-01T09:31:52;7.50;48.40
12874;DHT22;6505;51.114;13.128;2023-03-01T09:34:22;7.50;48.40
12874;DHT22;6505;51.114;13.128;2023-03-01T09:36:50;7.50;48.30
12874;DHT22;6505;51.114;13.128;2023-03-01T09:39:19;7.50;48.40
12874;DHT22;6505;51.114;13.128;2023-03-01T09:41:57;7.50;48.50
12874;DHT22;6505;51.114;13.128;2023-03-01T09:44:33;7.50;48.60
12874;DHT22;6505;51.114;13.128;2023-03-01T09:47:09;7.50;48.60
12874;DHT22;6505;51.114;13.128;2023-03-01T09:49:46;7.50;48.50
12874;DHT22;6505;51.114;13.128;2023-03-01T09:52:29;7.50;48.50
12874;DHT22;6505;51.114;13.128;2023-03-01T09:55:08;7.60;48.50
12874;DHT22;6505;51.114;13.128;2023-03-01T09:57:47;7.60;48.50
12874;DHT22;6505;51.114;13.128;2023-03-01T10:00:28;7.60;48.40
12874;DHT22;6505;51.114;13.128;2023-03-01T10:03:09;7.60;48.40
12874;DHT22;6505;51.114;13.128;2023-03-01T10:05:49;7.60;48.50
12874;DHT22;6505;51.114;13.128;2023-03-01T10:08:29;7.70;48.60
12874;DHT22;6505;51.114;13.128;2023-03-01T10:11:04;7.70;48.40
12874;DHT22;6505;51.114;13.128;2023-03-01T10:13:43;7.60;48.50
12874;DHT22;6505;51.114;13.128;2023-03-01T10:16:18;7.70;48.70
12874;DHT22;6505;51.114;13.128;2023-03-01T10:18:53;7.70;48.60
12874;DHT22;6505;51.114;13.128;2023-03-01T10:21:27;7.70;48.70
12874;DHT22;6505;51.114;13.128;2023-03-01T10:24:08;7.80;48.90
12874;DHT22;6505;51.114;13.128;2023-03-01T10:26:47;7.80;49.00
12874;DHT22;6505;51.114;13.128;2023-03-01T10:29:25;7.80;49.10
12874;DHT22;6505;51.114;13.128;2023-03-01T10:31:57;7.80;49.10
12874;DHT22;6505;51.114;13.128;2023-03-01T10:34:29;7.80;49.00
12874;DHT22;6505;51.114;13.128;2023-03-01T10:37:04;7.80;49.00
12874;DHT22;6505;51.114;13.128;2023-03-01T10:39:55;7.80;48.90
12874;DHT22;6505;51.114;13.128;2023-03-01T10:42:28;7.80;49.10
12874;DHT22;6505;51.114;13.128;2023-03-01T10:45:15;7.90;49.00
12874;DHT22;6505;51.114;13.128;2023-03-01T10:47:45;7.90;49.10
12874;DHT22;6505;51.114;13.128;2023-03-01T10:50:21;7.90;49.00
12874;DHT22;6505;51.114;13.128;2023-03-01T10:52:58;7.90;49.00
12874;DHT22;6505;51.114;13.128;2023-03-01T10:55:31;7.90;48.90
12874;DHT22;6505;51.114;13.128;2023-03-01T10:58:17;8.00;48.70
12874;DHT22;6505;51.114;13.128;2023-03-01T11:00:49;8.00;49.50
12874;DHT22;6505;51.114;13.128;2023-03-01T11:03:22;8.00;48.20
12874;DHT22;6505;51.114;13.128;2023-03-01T11:05:57;8.00;48.90
12874;DHT22;6505;51.114;13.128;2023-03-01T11:08:36;8.00;49.40
12874;DHT22;6505;51.114;13.128;2023-03-01T11:11:18;8.10;49.10
12874;DHT22;6505;51.114;13.128;2023-03-01T11:13:55;8.10;49.10
12874;DHT22;6505;51.114;13.128;2023-03-01T11:16:34;8.10;48.70
12874;DHT22;6505;51.114;13.128;2023-03-01T11:19:18;8.10;48.60
12874;DHT22;6505;51.114;13.128;2023-03-01T11:21:54;8.10;48.80
12874;DHT22;6505;51.114;13.128;2023-03-01T11:24:30;8.10;48.90
12874;DHT22;6505;51.114;13.128;2023-03-01T11:27:11;8.10;48.80
12874;DHT22;6505;51.114;13.128;2023-03-01T11:29:45;8.20;49.00
12874;DHT22;6505;51.114;13.128;2023-03-01T11:32:21;8.20;48.80
12874;DHT22;6505;51.114;13.128;2023-03-01T11:34:56;8.20;49.70
12874;DHT22;6505;51.114;13.128;2023-03-01T11:37:34;8.20;49.10
12874;DHT22;6505;51.114;13.128;2023-03-01T11:40:13;8.30;48.80
12874;DHT22;6505;51.114;13.128;2023-03-01T11:42:53;8.30;48.70
12874;DHT22;6505;51.114;13.128;2023-03-01T11:45:37;8.30;48.70
12874;DHT22;6505;51.114;13.128;2023-03-01T11:48:27;8.30;48.70
12874;DHT22;6505;51.114;13.128;2023-03-01T11:51:20;8.30;48.60
12874;DHT22;6505;51.114;13.128;2023-03-01T11:54:09;8.40;48.70
12874;DHT22;6505;51.114;13.128;2023-03-01T11:56:47;8.40;48.70
12874;DHT22;6505;51.114;13.128;2023-03-01T11:59:47;8.40;48.70
12874;DHT22;6505;51.114;13.128;2023-03-01T12:02:43;8.50;48.90
12874;DHT22;6505;51.114;13.128;2023-03-01T12:05:54;8.40;48.80
12874;DHT22;6505;51.114;13.128;2023-03-01T12:08:37;8.50;48.90
12874;DHT22;6505;51.114;13.128;2023-03-01T12:11:19;8.50;48.50
12874;DHT22;6505;51.114;13.128;2023-03-01T12:14:31;8.50;48.50
12874;DHT22;6505;51.114;13.128;2023-03-01T12:17:35;8.60;48.50
12874;DHT22;6505;51.114;13.128;2023-03-01T12:20:20;8.50;48.60
12874;DHT22;6505;51.114;13.128;2023-03-01T12:26:12;8.70;48.60
12874;DHT22;6505;51.114;13.128;2023-03-01T12:29:14;8.70;48.80
12874;DHT22;6505;51.114;13.128;2023-03-01T12:32:18;8.70;48.90
12874;DHT22;6505;51.114;13.128;2023-03-01T12:35:16;8.80;48.50
12874;DHT22;6505;51.114;13.128;2023-03-01T12:38:08;8.80;48.10
12874;DHT22;6505;51.114;13.128;2023-03-01T12:41:01;8.80;47.70
12874;DHT22;6505;51.114;13.128;2023-03-01T12:44:01;8.90;48.10
12874;DHT22;6505;51.114;13.128;2023-03-01T12:46:50;8.90;48.00
12874;DHT22;6505;51.114;13.128;2023-03-01T12:49:29;8.90;47.80
12874;DHT22;6505;51.114;13.128;2023-03-01T12:52:04;9.00;47.10
12874;DHT22;6505;51.114;13.128;2023-03-01T12:54:41;9.00;47.40
12874;DHT22;6505;51.114;13.128;2023-03-01T12:57:15;9.00;47.00
12874;DHT22;6505;51.114;13.128;2023-03-01T12:59:59;9.10;46.80
12874;DHT22;6505;51.114;13.128;2023-03-01T13:02:44;9.00;46.00
12874;DHT22;6505;51.114;13.128;2023-03-01T13:05:26;9.10;46.10
12874;DHT22;6505;51.114;13.128;2023-03-01T13:08:06;9.10;45.00
12874;DHT22;6505;51.114;13.128;2023-03-01T13:10:46;9.10;44.80
12874;DHT22;6505;51.114;13.128;2023-03-01T13:13:20;9.10;44.10
12874;DHT22;6505;51.114;13.128;2023-03-01T13:15:50;9.10;44.70
12874;DHT22;6505;51.114;13.128;2023-03-01T13:18:32;9.20;44.50
12874;DHT22;6505;51.114;13.128;2023-03-01T13:21:02;9.20;44.20
12874;DHT22;6505;51.114;13.128;2023-03-01T13:23:35;9.20;43.90
12874;DHT22;6505;51.114;13.128;2023-03-01T13:26:11;9.20;43.20
12874;DHT22;6505;51.114;13.128;2023-03-01T13:28:48;9.30;44.50
12874;DHT22;6505;51.114;13.128;2023-03-01T13:37:34;9.40;44.60
12874;DHT22;6505;51.114;13.128;2023-03-01T13:43:31;9.40;44.00
12874;DHT22;6505;51.114;13.128;2023-03-01T13:46:08;9.40;43.70
12874;DHT22;6505;51.114;13.128;2023-03-01T13:48:39;9.40;45.00
12874;DHT22;6505;51.114;13.128;2023-03-01T13:51:09;9.40;44.30
12874;DHT22;6505;51.114;13.128;2023-03-01T13:53:42;9.50;43.70
12874;DHT22;6505;51.114;13.128;2023-03-01T13:56:15;9.50;42.50
12874;DHT22;6505;51.114;13.128;2023-03-01T13:58:50;9.50;42.90
12874;DHT22;6505;51.114;13.128;2023-03-01T14:01:25;9.50;43.10
12874;DHT22;6505;51.114;13.128;2023-03-01T14:03:56;9.60;42.80
12874;DHT22;6505;51.114;13.128;2023-03-01T14:06:26;9.50;42.90
12874;DHT22;6505;51.114;13.128;2023-03-01T14:09:03;9.60;42.30
12874;DHT22;6505;51.114;13.128;2023-03-01T14:12:01;9.60;42.90
12874;DHT22;6505;51.114;13.128;2023-03-01T14:14:52;9.60;42.00
12874;DHT22;6505;51.114;13.128;2023-03-01T14:17:50;9.70;42.50
12874;DHT22;6505;51.114;13.128;2023-03-01T14:20:24;9.70;42.20
12874;DHT22;6505;51.114;13.128;2023-03-01T14:22:56;9.70;42.20
12874;DHT22;6505;51.114;13.128;2023-03-01T14:25:27;9.70;42.50
12874;DHT22;6505;51.114;13.128;2023-03-01T14:28:00;9.70;42.80
12874;DHT22;6505;51.114;13.128;2023-03-01T14:30:36;9.80;42.80
12874;DHT22;6505;51.114;13.128;2023-03-01T14:33:19;9.80;42.20
12874;DHT22;6505;51.114;13.128;2023-03-01T14:35:56;9.80;41.90
12874;DHT22;6505;51.114;13.128;2023-03-01T14:38:32;9.80;42.70
12874;DHT22;6505;51.114;13.128;2023-03-01T14:41:05;9.80;41.80
12874;DHT22;6505;51.114;13.128;2023-03-01T14:43:35;9.80;42.40
12874;DHT22;6505;51.114;13.128;2023-03-01T14:46:06;9.90;41.50
12874;DHT22;6505;51.114;13.128;2023-03-01T14:48:39;9.90;41.90
12874;DHT22;6505;51.114;13.128;2023-03-01T14:51:07;9.90;41.80
12874;DHT22;6505;51.114;13.128;2023-03-01T14:53:37;9.90;42.00
12874;DHT22;6505;51.114;13.128;2023-03-01T14:56:17;10.00;40.80
12874;DHT22;6505;51.114;13.128;2023-03-01T14:58:46;10.00;40.90
12874;DHT22;6505;51.114;13.128;2023-03-01T15:01:21;10.00;40.60
12874;DHT22;6505;51.114;13.128;2023-03-01T15:03:50;10.00;41.00
12874;DHT22;6505;51.114;13.128;2023-03-01T15:06:20;10.00;40.20
12874;DHT22;6505;51.114;13.128;2023-03-01T15:08:52;10.00;40.20
12874;DHT22;6505;51.114;13.128;2023-03-01T15:11:26;10.10;39.80
12874;DHT22;6505;51.114;13.128;2023-03-01T15:13:57;10.10;39.90
12874;DHT22;6505;51.114;13.128;2023-03-01T15:16:29;10.10;39.20
12874;DHT22;6505;51.114;13.128;2023-03-01T15:19:02;10.10;39.30
12874;DHT22;6505;51.114;13.128;2023-03-01T15:21:33;10.10;39.70
12874;DHT22;6505;51.114;13.128;2023-03-01T15:24:06;10.10;39.40
12874;DHT22;6505;51.114;13.128;2023-03-01T15:26:51;10.10;39.30
12874;DHT22;6505;51.114;13.128;2023-03-01T15:29:24;10.10;38.00
12874;DHT22;6505;51.114;13.128;2023-03-01T15:31:59;10.10;37.40
12874;DHT22;6505;51.114;13.128;2023-03-01T15:34:32;10.10;39.10
12874;DHT22;6505;51.114;13.128;2023-03-01T15:37:02;10.10;38.80
12874;DHT22;6505;51.114;13.128;2023-03-01T15:39:37;10.20;38.60
12874;DHT22;6505;51.114;13.128;2023-03-01T15:42:08;10.10;38.60
12874;DHT22;6505;51.114;13.128;2023-03-01T15:44:41;10.20;38.90
12874;DHT22;6505;51.114;13.128;2023-03-01T15:47:27;10.20;39.30
12874;DHT22;6505;51.114;13.128;2023-03-01T15:49:58;10.20;39.60
12874;DHT22;6505;51.114;13.128;2023-03-01T15:52:30;10.20;39.90
12874;DHT22;6505;51.114;13.128;2023-03-01T15:55:15;10.20;39.80
12874;DHT22;6505;51.114;13.128;2023-03-01T15:57:45;10.30;40.00
12874;DHT22;6505;51.114;13.128;2023-03-01T16:00:14;10.30;40.00
12874;DHT22;6505;51.114;13.128;2023-03-01T16:02:45;10.30;40.10
12874;DHT22;6505;51.114;13.128;2023-03-01T16:05:18;10.30;40.00
12874;DHT22;6505;51.114;13.128;2023-03-01T16:07:50;10.40;40.20
12874;DHT22;6505;51.114;13.128;2023-03-01T16:10:18;10.40;40.40
12874;DHT22;6505;51.114;13.128;2023-03-01T16:12:47;10.40;40.50
12874;DHT22;6505;51.114;13.128;2023-03-01T16:15:18;10.40;40.40
12874;DHT22;6505;51.114;13.128;2023-03-01T16:17:50;10.40;40.50
12874;DHT22;6505;51.114;13.128;2023-03-01T16:20:21;10.40;40.60
12874;DHT22;6505;51.114;13.128;2023-03-01T16:22:58;10.40;40.80
12874;DHT22;6505;51.114;13.128;2023-03-01T16:25:28;10.40;40.40
12874;DHT22;6505;51.114;13.128;2023-03-01T16:27:57;10.40;40.40
12874;DHT22;6505;51.114;13.128;2023-03-01T16:30:27;10.40;40.50
12874;DHT22;6505;51.114;13.128;2023-03-01T16:32:57;10.40;40.80
12874;DHT22;6505;51.114;13.128;2023-03-01T16:35:26;10.40;41.00